createdAt,value
2023-05-13T00:04:49.064Z,10.95
2023-05-13T00:09:52.617Z,10.78
2023-05-13T00:14:56.137Z,10.63
2023-05-13T00:20:01.230Z,10.79
2023-05-13T00:25:05.394Z,10.84
2023-05-13T00:30:10.169Z,10.86
2023-05-13T00:35:15.044Z,10.80
2023-05-13T00:40:21.011Z,10.69
2023-05-13T00:45:24.577Z,10.62
2023-05-13T00:50:29.765Z,10.53
2023-05-13T00:55:33.251Z,10.43
2023-05-13T01:00:48.804Z,10.43
2023-05-13T01:06:00.636Z,10.37
2023-05-13T01:11:15.036Z,10.27
2023-05-13T01:16:23.699Z,10.41
2023-05-13T01:21:29.050Z,10.29
2023-05-13T01:26:32.635Z,10.34
2023-05-13T01:31:36.908Z,10.35
2023-05-13T01:36:41.891Z,10.40
2023-05-13T01:41:45.684Z,10.30
2023-05-13T01:46:50.726Z,10.30
2023-05-13T01:51:56.385Z,10.41
2023-05-13T01:56:59.922Z,10.48
2023-05-13T02:02:04.382Z,10.59
2023-05-13T02:07:09.518Z,10.64
2023-05-13T02:12:13.175Z,10.65
2023-05-13T02:17:16.637Z,10.75
2023-05-13T02:22:21.625Z,10.90
2023-05-13T02:27:25.138Z,10.96
2023-05-13T02:32:28.667Z,11.09
2023-05-13T02:37:33.898Z,11.15
2023-05-13T02:42:37.463Z,11.22
2023-05-13T02:47:41.271Z,11.35
2023-05-13T02:52:47.561Z,11.46
2023-05-13T02:57:50.758Z,11.58
2023-05-13T03:02:54.213Z,11.73
2023-05-13T03:07:59.228Z,12.03
2023-05-13T03:13:02.801Z,12.88
2023-05-13T03:18:06.504Z,13.38
2023-05-13T03:23:11.570Z,13.90
2023-05-13T03:28:15.057Z,13.94
2023-05-13T03:33:18.834Z,14.13
2023-05-13T03:38:24.075Z,14.58
2023-05-13T03:43:27.547Z,14.93
2023-05-13T03:48:31.218Z,15.73
2023-05-13T03:53:36.079Z,20.61
2023-05-13T03:58:39.811Z,24.64
2023-05-13T04:03:45.509Z,27.44
2023-05-13T04:08:52.299Z,29.37
2023-05-13T04:13:55.766Z,30.90
2023-05-13T04:18:59.384Z,32.34
2023-05-13T04:24:04.536Z,33.97
2023-05-13T04:29:08.125Z,34.85
2023-05-13T04:34:11.544Z,36.75
2023-05-13T04:39:16.550Z,37.45
2023-05-13T04:44:20.032Z,38.42
2023-05-13T04:49:23.604Z,39.51
2023-05-13T04:54:29.230Z,40.12
2023-05-13T04:59:32.712Z,40.74
2023-05-13T05:04:36.207Z,41.39
2023-05-13T05:09:41.249Z,42.34
2023-05-13T05:14:44.777Z,43.10
2023-05-13T05:19:48.346Z,43.61
2023-05-13T05:24:53.409Z,44.14
2023-05-13T05:29:56.833Z,44.90
2023-05-13T05:35:02.305Z,45.62
2023-05-13T05:40:10.368Z,45.84
2023-05-13T05:45:13.934Z,45.37
2023-05-13T05:50:17.801Z,45.04
2023-05-13T05:55:22.907Z,45.18
2023-05-13T06:00:26.379Z,45.64
2023-05-13T06:05:29.892Z,45.92
2023-05-13T06:10:35.404Z,46.45
2023-05-13T06:15:40.114Z,45.91
2023-05-13T06:20:43.627Z,46.33
2023-05-13T06:25:48.618Z,45.83
2023-05-13T06:30:52.204Z,46.10
2023-05-13T06:35:55.671Z,46.12
2023-05-13T06:41:00.659Z,45.60
2023-05-13T06:46:04.194Z,44.74
2023-05-13T06:51:07.790Z,44.66
2023-05-13T06:56:12.685Z,45.13
2023-05-13T07:01:16.286Z,44.38
2023-05-13T07:06:19.740Z,44.20
2023-05-13T07:11:24.634Z,44.23
2023-05-13T07:16:28.243Z,43.62
2023-05-13T07:21:32.097Z,43.62
2023-05-13T07:26:37.286Z,43.63
2023-05-13T07:31:40.911Z,43.24
2023-05-13T07:36:44.538Z,42.45
2023-05-13T07:41:49.404Z,41.56
2023-05-13T07:46:53.894Z,41.49
2023-05-13T07:51:57.528Z,40.00
2023-05-13T07:57:03.027Z,39.93
2023-05-13T08:02:07.203Z,38.96
2023-05-13T08:07:11.770Z,38.87
2023-05-13T08:12:16.706Z,38.04
2023-05-13T08:17:20.584Z,37.13
2023-05-13T08:22:24.158Z,36.35
2023-05-13T08:27:29.060Z,34.18
2023-05-13T08:32:32.980Z,32.55
2023-05-13T08:37:36.588Z,31.59
2023-05-13T08:42:46.666Z,30.86
2023-05-13T08:47:53.054Z,30.21
2023-05-13T08:52:57.278Z,29.43
2023-05-13T08:58:02.347Z,29.17
2023-05-13T09:03:07.259Z,28.88
2023-05-13T09:08:11.246Z,28.34
2023-05-13T09:13:19.722Z,27.81
2023-05-13T09:18:23.613Z,27.85
2023-05-13T09:23:28.664Z,27.49
2023-05-13T09:28:33.576Z,27.08
2023-05-13T09:33:37.269Z,26.55
2023-05-13T09:38:40.507Z,26.47
2023-05-13T09:43:45.412Z,26.09
2023-05-13T09:48:50.475Z,26.00
2023-05-13T09:53:54.081Z,26.54
2023-05-13T09:58:59.230Z,26.30
2023-05-13T10:04:03.146Z,26.01
2023-05-13T10:09:10.507Z,26.34
2023-05-13T10:14:17.179Z,26.47
2023-05-13T10:19:24.354Z,26.41
2023-05-13T10:24:29.327Z,26.02
2023-05-13T10:29:35.628Z,26.03
2023-05-13T10:34:40.740Z,26.00
2023-05-13T10:40:17.232Z,25.70
2023-05-13T10:45:27.089Z,25.54
2023-05-13T10:50:31.550Z,25.79
2023-05-13T10:55:42.083Z,25.95
2023-05-13T11:00:47.171Z,25.94
2023-05-13T11:06:04.794Z,25.69
2023-05-13T11:11:20.063Z,25.44
2023-05-13T11:16:25.048Z,25.23
2023-05-13T11:21:32.324Z,25.13
2023-05-13T11:26:47.371Z,24.99
2023-05-13T11:31:53.459Z,24.86
2023-05-13T11:37:08.370Z,24.79
2023-05-13T11:42:12.934Z,24.72
2023-05-13T11:47:27.774Z,24.85
2023-05-13T11:52:31.340Z,24.80
2023-05-13T11:57:35.169Z,24.70
2023-05-13T12:02:40.852Z,24.98
2023-05-13T12:07:44.872Z,24.92
2023-05-13T12:12:48.300Z,25.13
2023-05-13T12:17:53.441Z,24.75
2023-05-13T12:23:00.299Z,24.92
2023-05-13T12:28:08.446Z,24.97
2023-05-13T12:33:18.483Z,24.94
2023-05-13T12:38:24.800Z,24.81
2023-05-13T12:43:28.441Z,24.69
2023-05-13T12:48:34.354Z,24.56
2023-05-13T12:53:37.880Z,24.55
2023-05-13T12:58:42.115Z,24.57
2023-05-13T13:03:47.451Z,24.69
2023-05-13T13:08:51.035Z,24.37
2023-05-13T13:13:54.604Z,24.33
2023-05-13T13:19:01.902Z,24.49
2023-05-13T13:24:05.792Z,24.60
2023-05-13T13:29:09.457Z,24.60
2023-05-13T13:34:14.427Z,24.65
2023-05-13T13:39:17.980Z,24.53
2023-05-13T13:44:21.519Z,24.39
2023-05-13T13:49:26.515Z,24.29
2023-05-13T13:54:30.036Z,24.17
2023-05-13T13:59:33.505Z,24.23
2023-05-13T14:04:38.330Z,24.05
2023-05-13T14:09:41.753Z,23.98
2023-05-13T14:14:45.278Z,23.83
2023-05-13T14:19:51.846Z,23.81
2023-05-13T14:24:55.465Z,23.91
2023-05-13T14:29:59.235Z,24.07
2023-05-13T14:35:04.278Z,24.22
2023-05-13T14:40:09.759Z,24.16
2023-05-13T14:45:16.806Z,24.12
2023-05-13T14:50:23.081Z,24.17
2023-05-13T14:55:27.011Z,23.89
2023-05-13T15:00:31.918Z,23.70
2023-05-13T15:05:36.911Z,23.76
2023-05-13T15:10:40.411Z,23.53
2023-05-13T15:15:43.919Z,23.65
2023-05-13T15:20:48.774Z,23.68
2023-05-13T15:25:52.734Z,23.56
2023-05-13T15:30:56.318Z,23.34
2023-05-13T15:36:01.645Z,23.10
2023-05-13T15:41:05.477Z,23.05
2023-05-13T15:46:09.065Z,23.14
2023-05-13T15:51:14.289Z,23.14
2023-05-13T15:56:17.782Z,22.94
2023-05-13T16:01:21.355Z,22.52
2023-05-13T16:06:26.410Z,22.40
2023-05-13T16:11:31.748Z,22.11
2023-05-13T16:16:35.518Z,21.87
2023-05-13T16:21:42.891Z,21.78
2023-05-13T16:26:46.628Z,21.79
2023-05-13T16:31:50.164Z,21.76
2023-05-13T16:36:57.197Z,21.66
2023-05-13T16:42:02.381Z,21.33
2023-05-13T16:47:08.712Z,21.28
2023-05-13T16:52:13.744Z,21.29
2023-05-13T16:57:17.450Z,21.21
2023-05-13T17:02:20.939Z,21.18
2023-05-13T17:07:25.856Z,21.15
2023-05-13T17:12:29.269Z,20.94
2023-05-13T17:17:33.079Z,20.74
2023-05-13T17:22:38.042Z,20.51
2023-05-13T17:27:41.583Z,20.30
2023-05-13T17:32:45.075Z,20.03
2023-05-13T17:37:50.105Z,19.84
2023-05-13T17:42:53.574Z,19.58
2023-05-13T17:47:57.085Z,19.36
2023-05-13T17:53:02.158Z,19.17
2023-05-13T17:58:05.638Z,18.98
2023-05-13T18:03:09.147Z,18.80
2023-05-13T18:08:14.212Z,18.72
2023-05-13T18:13:17.721Z,18.62
2023-05-13T18:18:21.184Z,18.51
2023-05-13T18:23:26.436Z,18.37
2023-05-13T18:28:29.972Z,18.31
2023-05-13T18:33:33.535Z,18.23
2023-05-13T18:38:39.907Z,18.06
2023-05-13T18:43:43.496Z,18.00
2023-05-13T18:48:47.118Z,17.90
2023-05-13T18:53:52.001Z,17.80
2023-05-13T18:58:55.600Z,17.67
2023-05-13T19:03:59.135Z,17.55
2023-05-13T19:09:04.189Z,17.46
2023-05-13T19:14:08.262Z,17.36
2023-05-13T19:19:11.889Z,17.33
2023-05-13T19:24:16.881Z,17.23
2023-05-13T19:29:20.429Z,17.20
2023-05-13T19:34:24.169Z,17.14
2023-05-13T19:39:29.246Z,17.10
2023-05-13T19:44:34.156Z,17.00
2023-05-13T19:49:38.008Z,16.97
2023-05-13T19:54:43.207Z,16.90
2023-05-13T19:59:48.111Z,16.80
2023-05-13T20:04:51.636Z,16.60
2023-05-13T20:09:57.030Z,16.52
2023-05-13T20:15:01.303Z,16.44
2023-05-13T20:20:06.335Z,16.34
2023-05-13T20:25:11.617Z,16.23
2023-05-13T20:30:15.408Z,16.12
2023-05-13T20:35:18.893Z,16.08
2023-05-13T20:40:24.146Z,15.94
2023-05-13T20:45:27.917Z,15.81
2023-05-13T20:50:31.515Z,15.63
2023-05-13T20:55:36.381Z,15.61
2023-05-13T21:00:39.850Z,15.46
2023-05-13T21:05:43.476Z,15.37
2023-05-13T21:10:48.431Z,15.28
2023-05-13T21:15:52.146Z,15.18
2023-05-13T21:20:55.646Z,15.04
2023-05-13T21:26:00.540Z,14.90
2023-05-13T21:31:04.104Z,14.84
2023-05-13T21:36:08.665Z,14.67
2023-05-13T21:41:13.570Z,14.63
2023-05-13T21:46:17.095Z,14.55
2023-05-13T21:51:20.589Z,14.45
2023-05-13T21:56:25.632Z,14.38
2023-05-13T22:01:29.211Z,14.22
2023-05-13T22:06:33.702Z,14.22
2023-05-13T22:11:38.761Z,14.11
2023-05-13T22:16:42.307Z,13.94
2023-05-13T22:21:45.927Z,13.86
2023-05-13T22:26:51.026Z,13.78
2023-05-13T22:31:55.881Z,13.64
2023-05-13T22:36:59.455Z,13.51
2023-05-13T22:42:04.473Z,13.29
2023-05-13T22:47:08.746Z,13.40
2023-05-13T22:52:12.215Z,13.26
2023-05-13T22:57:17.260Z,13.18
2023-05-13T23:02:21.000Z,13.07
2023-05-13T23:07:24.633Z,12.83
2023-05-13T23:12:29.546Z,12.89
2023-05-13T23:17:33.139Z,12.75
2023-05-13T23:22:36.705Z,12.61
2023-05-13T23:27:41.616Z,12.48
2023-05-13T23:32:45.335Z,12.36
2023-05-13T23:37:48.897Z,12.19
2023-05-13T23:42:53.843Z,12.07
2023-05-13T23:47:57.455Z,12.02
2023-05-13T23:53:01.308Z,11.93
2023-05-13T23:58:06.226Z,11.89
